Time;durP1;ratioP1;P1;durP2;ratioP2;P2;SDS_P1;SDS_P2;PMS_P1;PMS_P2;Temp;Humidity;BMP_temperature;BMP_pressure;BME280_temperature;BME280_humidity;BME280_pressure;Samples;Min_cycle;Max_cycle;Signal;HPM_P1;HPM_P2
2023/04/26 00:01:20;;;;;;;1.27;1.10;;;;;;;8.16;100.00;96217.91;5055552;28;20208;-69
2023/04/26 00:03:47;;;;;;;2.63;2.43;;;;;;;8.19;100.00;96216.75;5056241;28;20216;-69
2023/04/26 00:06:15;;;;;;;1.00;0.90;;;;;;;8.08;100.00;96220.50;5055790;28;20207;-70
2023/04/26 00:08:42;;;;;;;1.70;1.57;;;;;;;8.10;100.00;96225.56;5054990;28;20205;-70
2023/04/26 00:11:08;;;;;;;2.77;1.97;;;;;;;8.05;100.00;96222.59;5055574;28;20196;-69
2023/04/26 00:13:36;;;;;;;1.40;1.03;;;;;;;8.00;100.00;96222.28;5054761;28;20228;-69
2023/04/26 00:16:05;;;;;;;1.70;1.60;;;;;;;8.03;100.00;96216.69;5055715;28;20253;-69
2023/04/26 00:18:31;;;;;;;2.77;2.07;;;;;;;7.97;100.00;96220.78;5055279;28;20579;-69
2023/04/26 00:20:58;;;;;;;2.73;2.07;;;;;;;7.97;100.00;96218.16;5056578;28;20197;-69
2023/04/26 00:23:25;;;;;;;3.90;1.13;;;;;;;7.98;100.00;96219.81;5058322;28;20203;-69
2023/04/26 00:25:51;;;;;;;2.57;2.13;;;;;;;7.92;100.00;96215.19;5059422;28;20208;-69
2023/04/26 00:28:17;;;;;;;1.93;1.83;;;;;;;7.96;100.00;96215.72;5059431;28;20201;-69
2023/04/26 00:30:47;;;;;;;2.40;1.27;;;;;;;7.97;100.00;96219.97;5058980;28;20662;-69
2023/04/26 00:33:15;;;;;;;3.47;2.67;;;;;;;8.10;100.00;96220.31;5059028;28;20231;-69
2023/04/26 00:35:42;;;;;;;2.57;1.43;;;;;;;7.93;100.00;96221.28;5059438;28;20220;-69
2023/04/26 00:38:08;;;;;;;1.63;1.40;;;;;;;7.97;100.00;96217.34;5059541;28;20257;-69
2023/04/26 00:40:35;;;;;;;1.07;0.90;;;;;;;7.89;100.00;96212.91;5058709;28;20211;-69
2023/04/26 00:43:03;;;;;;;5.63;2.20;;;;;;;7.93;100.00;96223.91;5059195;28;20213;-69
2023/04/26 00:45:30;;;;;;;2.03;1.27;;;;;;;7.88;100.00;96221.75;5059659;28;20217;-70
2023/04/26 00:47:56;;;;;;;3.93;2.23;;;;;;;7.83;100.00;96223.22;5058867;28;20703;-69
2023/04/26 00:50:24;;;;;;;2.20;1.67;;;;;;;7.96;100.00;96220.97;5058670;28;20205;-69
2023/04/26 00:52:51;;;;;;;3.40;2.27;;;;;;;7.98;100.00;96221.59;5059167;28;20702;-69
2023/04/26 00:55:21;;;;;;;2.40;2.20;;;;;;;7.95;100.00;96227.19;5059551;28;20603;-70
2023/04/26 00:57:48;;;;;;;1.60;1.10;;;;;;;7.90;100.00;96224.22;5058220;28;20200;-70
2023/04/26 01:00:15;;;;;;;1.73;1.53;;;;;;;7.82;100.00;96221.59;5058537;28;20213;-69
2023/04/26 01:02:42;;;;;;;1.43;1.03;;;;;;;7.69;100.00;96229.09;5058922;28;20204;-69
2023/04/26 01:05:09;;;;;;;2.50;1.97;;;;;;;7.90;100.00;96226.84;5059234;28;20227;-69
2023/04/26 01:07:38;;;;;;;1.33;1.23;;;;;;;7.92;100.00;96219.66;5058738;28;20209;-69
2023/04/26 01:10:05;;;;;;;1.13;1.10;;;;;;;7.70;100.00;96230.75;5058946;28;20258;-69
2023/04/26 01:12:32;;;;;;;3.57;2.00;;;;;;;7.47;100.00;96224.44;5058035;28;20234;-70
2023/04/26 01:14:59;;;;;;;2.53;1.90;;;;;;;7.29;100.00;96226.34;5058554;28;20630;-69
2023/04/26 01:17:26;;;;;;;3.07;1.43;;;;;;;7.28;100.00;96223.88;5058013;28;20200;-70
2023/04/26 01:19:52;;;;;;;2.90;2.43;;;;;;;7.42;100.00;96216.22;5058909;28;20200;-69
2023/04/26 01:22:20;;;;;;;2.43;1.60;;;;;;;7.56;100.00;96228.72;5058366;28;20311;-69
2023/04/26 01:24:50;;;;;;;0.93;0.93;;;;;;;7.73;100.00;96221.72;5058948;28;20327;-69
2023/04/26 01:27:17;;;;;;;1.90;1.70;;;;;;;7.64;100.00;96226.13;5057807;28;20200;-69
2023/04/26 01:29:44;;;;;;;1.87;1.47;;;;;;;7.56;100.00;96227.88;5058509;28;20211;-69
2023/04/26 01:32:11;;;;;;;2.70;1.53;;;;;;;7.51;100.00;96225.75;5057203;28;20200;-70
2023/04/26 01:34:38;;;;;;;2.67;2.10;;;;;;;7.53;100.00;96230.84;5058331;28;20285;-69
2023/04/26 01:37:06;;;;;;;2.90;1.13;;;;;;;7.55;99.95;96237.56;5057574;28;20223;-69
2023/04/26 01:39:33;;;;;;;1.53;1.33;;;;;;;7.71;100.00;96236.78;5057206;28;20247;-69
2023/04/26 01:42:01;;;;;;;2.43;1.90;;;;;;;7.75;99.45;96236.34;5058119;28;20223;-70
2023/04/26 01:44:28;;;;;;;1.30;1.20;;;;;;;7.55;100.00;96234.94;5057201;28;20349;-69
2023/04/26 01:46:54;;;;;;;1.43;1.33;;;;;;;7.72;98.59;96231.38;5058238;28;20205;-70
2023/04/26 01:49:21;;;;;;;2.03;1.03;;;;;;;7.69;100.00;96244.00;5057311;28;20205;-70
2023/04/26 01:51:47;;;;;;;1.97;1.63;;;;;;;7.71;100.00;96242.84;5057124;28;20200;-69
2023/04/26 01:54:14;;;;;;;1.67;1.30;;;;;;;7.73;100.00;96240.09;5057138;28;20584;-69
2023/04/26 01:56:41;;;;;;;2.40;1.47;;;;;;;7.68;100.00;96235.31;5058610;28;20204;-70
2023/04/26 01:59:08;;;;;;;1.03;1.03;;;;;;;7.78;100.00;96236.00;5056701;28;20204;-69
2023/04/26 02:01:36;;;;;;;3.80;1.73;;;;;;;7.65;100.00;96233.03;5057302;28;20471;-69
2023/04/26 02:04:03;;;;;;;0.97;0.97;;;;;;;7.64;100.00;96234.00;5057818;28;20307;-70
2023/04/26 02:06:30;;;;;;;0.80;0.80;;;;;;;7.58;100.00;96245.09;5057620;28;20213;-69
2023/04/26 02:08:56;;;;;;;0.60;0.60;;;;;;;7.52;100.00;96235.28;5056331;28;20209;-69
2023/04/26 02:11:23;;;;;;;5.83;1.13;;;;;;;7.63;100.00;96224.47;5057082;28;20200;-69
2023/04/26 02:13:49;;;;;;;3.33;1.80;;;;;;;7.70;100.00;96233.38;5056859;28;20235;-70
2023/04/26 02:16:18;;;;;;;2.03;1.93;;;;;;;7.77;100.00;96225.69;5056181;28;20196;-69
2023/04/26 02:18:44;;;;;;;0.60;0.60;;;;;;;7.66;100.00;96223.34;5056384;28;20201;-69
2023/04/26 02:21:11;;;;;;;1.80;1.27;;;;;;;7.72;100.00;96226.13;5056687;28;20200;-69
2023/04/26 02:23:38;;;;;;;1.53;1.27;;;;;;;7.75;100.00;96223.22;5056427;28;20274;-69
2023/04/26 02:26:04;;;;;;;0.83;0.83;;;;;;;7.67;100.00;96225.78;5057406;28;20200;-69
2023/04/26 02:28:31;;;;;;;1.57;1.20;;;;;;;7.61;100.00;96221.22;5056071;28;20319;-69
2023/04/26 02:30:57;;;;;;;1.17;1.00;;;;;;;7.49;100.00;96222.47;5056923;28;20532;-69
2023/04/26 02:33:25;;;;;;;1.40;1.40;;;;;;;7.61;100.00;96220.38;5055413;28;20281;-69
2023/04/26 02:35:52;;;;;;;0.83;0.83;;;;;;;7.48;100.00;96226.06;5056944;28;20196;-69
2023/04/26 02:38:18;;;;;;;1.00;0.63;;;;;;;7.54;100.00;96216.75;5055958;28;20205;-69
2023/04/26 02:40:45;;;;;;;0.90;0.90;;;;;;;7.51;100.00;96224.91;5056684;28;20201;-69
2023/04/26 02:43:11;;;;;;;2.73;2.53;;;;;;;7.44;100.00;96223.94;5056050;28;20227;-69
2023/04/26 02:45:41;;;;;;;4.27;2.63;;;;;;;7.54;100.00;96230.66;5055882;28;20212;-69
2023/04/26 02:48:08;;;;;;;1.23;1.13;;;;;;;7.45;100.00;96226.38;5055754;28;20201;-69
2023/04/26 02:50:36;;;;;;;1.80;1.47;;;;;;;7.52;100.00;96227.41;5053421;28;20204;-69
2023/04/26 02:53:03;;;;;;;1.73;1.63;;;;;;;7.47;100.00;96227.06;5055844;28;20249;-69
2023/04/26 02:55:29;;;;;;;1.57;1.47;;;;;;;7.36;100.00;96229.13;5055359;28;20301;-69
2023/04/26 02:57:56;;;;;;;2.83;1.03;;;;;;;7.40;100.00;96223.41;5056383;28;20204;-69
2023/04/26 03:00:23;;;;;;;2.53;0.97;;;;;;;7.40;100.00;96233.91;5054385;28;20755;-69
2023/04/26 03:02:50;;;;;;;0.77;0.70;;;;;;;7.32;100.00;96235.69;5055542;28;20197;-69
2023/04/26 03:05:17;;;;;;;1.10;1.07;;;;;;;7.30;100.00;96227.94;5056239;28;20221;-69
2023/04/26 03:07:45;;;;;;;1.20;1.10;;;;;;;7.25;100.00;96232.03;5056730;28;20251;-69
2023/04/26 03:10:11;;;;;;;0.80;0.80;;;;;;;7.11;100.00;96237.03;5056126;28;20207;-69
2023/04/26 03:12:38;;;;;;;1.80;1.57;;;;;;;7.15;100.00;96227.88;5055785;28;20208;-69
2023/04/26 03:15:05;;;;;;;2.10;1.93;;;;;;;7.12;100.00;96229.03;5055988;28;20598;-69
2023/04/26 03:17:31;;;;;;;1.67;1.57;;;;;;;7.13;100.00;96224.59;5055542;28;20196;-69
2023/04/26 03:19:58;;;;;;;0.60;0.60;;;;;;;7.04;100.00;96230.75;5056328;28;20205;-69
2023/04/26 03:22:24;;;;;;;1.30;0.80;;;;;;;6.82;100.00;96239.16;5056050;28;20204;-69
2023/04/26 03:24:52;;;;;;;2.00;1.27;;;;;;;6.77;100.00;96234.41;5055702;28;21119;-69
2023/04/26 03:27:19;;;;;;;0.50;0.50;;;;;;;6.77;100.00;96238.78;5054941;28;20204;-69
2023/04/26 03:29:45;;;;;;;1.17;1.17;;;;;;;6.68;100.00;96245.78;5055279;28;20742;-69
2023/04/26 03:34:35;;;;;;;1.13;1.03;;;;;;;6.99;100.00;96243.53;5034057;27;20595;-68
2023/04/26 03:37:02;;;;;;;0.80;0.80;;;;;;;6.87;100.00;96248.22;5018921;28;20225;-68
2023/04/26 03:39:28;;;;;;;0.57;0.57;;;;;;;6.94;100.00;96245.78;5013497;28;20221;-68
2023/04/26 03:41:55;;;;;;;0.67;0.67;;;;;;;6.93;100.00;96246.75;5017260;28;20201;-69
2023/04/26 03:44:21;;;;;;;1.37;1.27;;;;;;;6.94;100.00;96245.78;5016168;28;20225;-68
2023/04/26 03:46:48;;;;;;;1.20;1.10;;;;;;;6.90;100.00;96247.91;5015095;28;20221;-69
2023/04/26 03:49:14;;;;;;;0.87;0.87;;;;;;;6.93;100.00;96254.63;5013719;28;20209;-69
2023/04/26 03:51:42;;;;;;;1.43;1.37;;;;;;;7.12;100.00;96251.78;5015044;28;20212;-69
2023/04/26 03:54:08;;;;;;;1.47;1.07;;;;;;;7.08;100.00;96247.84;5013786;28;20214;-69
2023/04/26 03:56:35;;;;;;;2.00;1.30;;;;;;;7.14;100.00;96244.59;5014275;28;20611;-69
2023/04/26 03:59:01;;;;;;;2.67;1.40;;;;;;;7.15;100.00;96238.38;5013569;28;20294;-69
2023/04/26 04:01:28;;;;;;;1.80;1.30;;;;;;;7.17;100.00;96252.16;5015522;28;20206;-68
2023/04/26 04:03:55;;;;;;;0.50;0.50;;;;;;;7.11;100.00;96252.75;5013697;28;20229;-69
2023/04/26 04:06:21;;;;;;;2.03;1.57;;;;;;;7.01;100.00;96257.28;5020062;28;20208;-69
2023/04/26 04:08:49;;;;;;;1.13;1.13;;;;;;;6.99;100.00;96251.41;5018891;28;20288;-69
2023/04/26 04:11:15;;;;;;;1.13;1.10;;;;;;;6.90;100.00;96261.00;5013715;28;20213;-69
2023/04/26 04:13:42;;;;;;;1.83;1.23;;;;;;;6.91;100.00;96254.78;5013685;28;20591;-69
2023/04/26 04:16:09;;;;;;;1.07;1.00;;;;;;;6.99;100.00;96264.50;5013424;28;20205;-69
2023/04/26 04:18:36;;;;;;;1.40;1.20;;;;;;;7.01;100.00;96254.66;5015965;28;20594;-69
2023/04/26 04:21:02;;;;;;;1.47;1.37;;;;;;;7.03;100.00;96250.91;5015175;28;21251;-69
2023/04/26 04:23:28;;;;;;;4.80;1.30;;;;;;;7.10;100.00;96258.97;5013176;28;20240;-68
2023/04/26 04:25:57;;;;;;;2.13;1.67;;;;;;;7.24;100.00;96248.72;5014723;28;20210;-68
2023/04/26 04:28:23;;;;;;;1.10;1.00;;;;;;;7.27;100.00;96248.44;5013571;28;20668;-69
2023/04/26 04:30:50;;;;;;;2.20;1.73;;;;;;;7.21;100.00;96249.03;5014983;28;20627;-69
2023/04/26 04:33:16;;;;;;;4.83;1.70;;;;;;;7.16;100.00;96250.50;5014901;28;20206;-68
2023/04/26 04:35:44;;;;;;;2.67;1.10;;;;;;;7.29;100.00;96249.06;5013492;28;20217;-69
2023/04/26 04:38:10;;;;;;;0.80;0.80;;;;;;;7.29;100.00;96243.84;5013209;28;20205;-69
2023/04/26 04:40:37;;;;;;;1.33;1.10;;;;;;;7.33;100.00;96253.03;5019133;28;20206;-69
2023/04/26 04:43:05;;;;;;;2.23;1.63;;;;;;;7.40;100.00;96248.81;5013107;28;20229;-68
2023/04/26 04:45:31;;;;;;;1.53;1.27;;;;;;;7.28;100.00;96253.50;5002272;28;20233;-69
2023/04/26 04:47:58;;;;;;;1.60;1.47;;;;;;;7.17;100.00;96254.78;5003221;28;20206;-69
2023/04/26 04:50:24;;;;;;;1.40;1.13;;;;;;;7.32;100.00;96259.28;5000692;28;20211;-69
2023/04/26 04:52:51;;;;;;;2.10;1.73;;;;;;;7.30;100.00;96256.78;4999921;28;20199;-69
2023/04/26 04:55:17;;;;;;;1.77;1.63;;;;;;;7.32;100.00;96257.47;5000117;28;20357;-68
2023/04/26 04:57:44;;;;;;;3.13;1.80;;;;;;;7.21;100.00;96261.34;4999495;28;20203;-68
2023/04/26 05:00:14;;;;;;;1.37;1.23;;;;;;;7.29;100.00;96265.66;5000099;28;20706;-69
2023/04/26 05:02:41;;;;;;;4.10;2.33;;;;;;;7.30;100.00;96264.66;4999494;28;20206;-69
2023/04/26 05:05:09;;;;;;;2.07;1.07;;;;;;;7.37;100.00;96260.44;4999887;28;20226;-68
2023/04/26 05:07:36;;;;;;;15.60;2.30;;;;;;;7.43;100.00;96265.06;4999120;28;20220;-70
2023/04/26 05:10:03;;;;;;;1.87;1.73;;;;;;;7.55;100.00;96270.84;4999801;28;20210;-69
2023/04/26 05:12:30;;;;;;;1.43;1.33;;;;;;;7.53;100.00;96264.91;4999369;28;20206;-69
2023/04/26 05:14:56;;;;;;;4.17;1.73;;;;;;;7.63;100.00;96268.25;4999857;28;20226;-68
2023/04/26 05:17:24;;;;;;;0.87;0.87;;;;;;;7.70;100.00;96267.47;4998849;28;20234;-69
2023/04/26 05:19:51;;;;;;;1.40;1.27;;;;;;;7.66;100.00;96276.63;4998954;28;20202;-69
2023/04/26 05:22:20;;;;;;;1.87;1.73;;;;;;;7.61;100.00;96267.56;5001851;28;20241;-69
2023/04/26 05:24:46;;;;;;;4.07;2.70;;;;;;;7.65;100.00;96279.38;5001106;28;20230;-69
2023/04/26 05:27:13;;;;;;;1.23;1.13;;;;;;;7.53;100.00;96278.03;5002048;28;20202;-69
2023/04/26 05:29:40;;;;;;;1.80;1.70;;;;;;;7.58;100.00;96286.25;4998649;28;20260;-69
2023/04/26 05:32:06;;;;;;;2.87;1.57;;;;;;;7.75;100.00;96290.56;5003192;28;20662;-69
2023/04/26 05:34:35;;;;;;;2.30;1.87;;;;;;;7.85;100.00;96291.28;5001322;28;20218;-69
2023/04/26 05:37:02;;;;;;;3.27;2.43;;;;;;;7.61;100.00;96299.03;4998865;28;20207;-69
2023/04/26 05:39:28;;;;;;;2.13;1.93;;;;;;;7.61;100.00;96299.88;4999029;28;20293;-69
2023/04/26 05:41:55;;;;;;;3.37;1.90;;;;;;;7.78;100.00;96293.72;4999590;28;20209;-69
2023/04/26 05:44:22;;;;;;;2.43;1.57;;;;;;;7.63;100.00;96297.91;4999205;28;20226;-69
2023/04/26 05:46:48;;;;;;;1.90;1.53;;;;;;;7.82;100.00;96299.47;4999750;28;20213;-69
2023/04/26 05:49:15;;;;;;;1.43;1.33;;;;;;;7.75;100.00;96294.03;4998461;28;20202;-69
2023/04/26 05:51:43;;;;;;;2.20;1.37;;;;;;;7.91;100.00;96296.69;5002222;28;20202;-69
2023/04/26 05:54:09;;;;;;;1.43;1.27;;;;;;;7.82;100.00;96296.84;5002142;28;20218;-69
2023/04/26 05:56:36;;;;;;;3.00;1.33;;;;;;;7.76;100.00;96302.72;4998098;28;20207;-69
2023/04/26 05:59:02;;;;;;;1.87;1.67;;;;;;;7.81;100.00;96301.25;4998237;28;20675;-69
2023/04/26 06:01:28;;;;;;;2.90;1.40;;;;;;;7.82;100.00;96302.91;4999169;28;20659;-69
2023/04/26 06:03:55;;;;;;;0.73;0.70;;;;;;;7.72;99.61;96304.81;4998725;28;20578;-69
2023/04/26 06:06:21;;;;;;;2.67;2.30;;;;;;;7.81;99.67;96306.50;4999064;28;21188;-69
2023/04/26 06:08:49;;;;;;;2.87;1.73;;;;;;;7.85;97.12;96304.38;4998068;28;20203;-69
2023/04/26 06:11:16;;;;;;;1.73;1.60;;;;;;;7.54;98.68;96311.94;5004430;28;20203;-69
2023/04/26 06:13:42;;;;;;;2.00;1.83;;;;;;;7.27;100.00;96322.63;5004584;28;20218;-69
2023/04/26 06:16:08;;;;;;;1.93;1.10;;;;;;;7.12;100.00;96314.69;4999092;28;20207;-69
2023/04/26 06:18:35;;;;;;;2.40;0.90;;;;;;;7.15;100.00;96324.84;4997975;28;20218;-69
2023/04/26 06:21:02;;;;;;;4.87;1.93;;;;;;;7.22;100.00;96324.06;4998649;28;20226;-69
2023/04/26 06:23:28;;;;;;;2.53;1.87;;;;;;;7.43;99.88;96322.72;4999587;28;20230;-69
2023/04/26 06:25:56;;;;;;;2.20;2.00;;;;;;;7.48;100.00;96317.00;5002375;28;20202;-69
2023/04/26 06:28:22;;;;;;;2.70;1.80;;;;;;;7.67;100.00;96320.22;5000477;28;20210;-69
2023/04/26 06:30:49;;;;;;;2.60;2.20;;;;;;;7.89;98.44;96312.59;5007077;28;20198;-69
2023/04/26 06:33:15;;;;;;;3.97;1.90;;;;;;;8.05;96.36;96317.88;4999876;28;20225;-69
2023/04/26 06:35:42;;;;;;;3.97;1.60;;;;;;;8.20;96.49;96315.53;4999017;28;20210;-69
2023/04/26 06:38:11;;;;;;;1.33;0.80;;;;;;;8.05;90.89;96324.94;4997390;28;20576;-69
2023/04/26 06:40:37;;;;;;;2.13;1.93;;;;;;;8.40;91.07;96332.59;4998337;28;20216;-69
2023/04/26 06:43:05;;;;;;;2.03;1.53;;;;;;;8.52;92.74;96324.25;4998327;28;20587;-69
2023/04/26 06:45:32;;;;;;;1.93;1.77;;;;;;;8.56;92.55;96322.94;4998882;28;20226;-69
2023/04/26 06:48:00;;;;;;;4.33;1.80;;;;;;;8.75;91.60;96328.72;5001332;28;20205;-69
2023/04/26 06:50:27;;;;;;;3.27;1.53;;;;;;;8.87;91.20;96324.78;4999834;28;20210;-69
2023/04/26 06:52:53;;;;;;;12.43;2.13;;;;;;;8.51;88.12;96327.88;4999769;28;20702;-69
2023/04/26 06:55:20;;;;;;;1.60;1.33;;;;;;;8.64;88.13;96322.94;4997563;28;20222;-69
2023/04/26 06:57:46;;;;;;;3.77;2.40;;;;;;;8.71;89.91;96327.41;4997415;28;20202;-69
2023/04/26 07:00:16;;;;;;;4.33;2.10;;;;;;;9.02;87.32;96327.56;4998965;28;20214;-69
2023/04/26 07:02:43;;;;;;;1.10;1.00;;;;;;;8.76;85.73;96332.19;4997504;28;20212;-69
2023/04/26 07:05:09;;;;;;;3.33;1.77;;;;;;;9.10;86.27;96336.28;4997854;28;20218;-69
2023/04/26 07:07:36;;;;;;;1.47;1.37;;;;;;;9.14;83.30;96329.69;4997578;28;20565;-69
2023/04/26 07:10:02;;;;;;;1.40;1.13;;;;;;;9.25;84.40;96329.34;5002611;28;20292;-69
2023/04/26 07:12:29;;;;;;;2.80;1.80;;;;;;;9.06;81.92;96334.94;4998625;28;20240;-69
2023/04/26 07:14:56;;;;;;;3.03;1.50;;;;;;;9.15;85.01;96333.94;4997736;28;20224;-69
2023/04/26 07:17:24;;;;;;;1.47;1.20;;;;;;;9.04;85.39;96336.09;4994757;28;20213;-69
2023/04/26 07:19:50;;;;;;;1.53;1.43;;;;;;;9.00;88.11;96319.84;4997370;28;20202;-69
2023/04/26 07:22:17;;;;;;;2.57;1.90;;;;;;;9.13;86.30;96335.94;4998052;28;20213;-69
2023/04/26 07:24:43;;;;;;;5.70;2.67;;;;;;;9.29;83.22;96330.66;4997295;28;20234;-69
2023/04/26 07:27:10;;;;;;;1.33;1.23;;;;;;;9.25;83.92;96331.97;4997309;28;20205;-69
2023/04/26 07:29:36;;;;;;;0.90;0.90;;;;;;;9.36;80.64;96326.38;4996806;28;20238;-69
2023/04/26 07:32:03;;;;;;;2.03;1.93;;;;;;;9.56;82.33;96325.00;4999396;28;20199;-69
2023/04/26 07:34:31;;;;;;;2.17;1.60;;;;;;;9.82;83.49;96329.84;4997369;28;20243;-69
2023/04/26 07:36:57;;;;;;;1.10;0.97;;;;;;;9.86;80.28;96323.28;5000241;28;20293;-69
2023/04/26 07:39:24;;;;;;;2.80;2.13;;;;;;;10.13;80.49;96319.38;4996956;28;20213;-69
2023/04/26 07:41:50;;;;;;;1.83;1.73;;;;;;;10.45;79.41;96317.38;5000155;28;20261;-69
2023/04/26 07:44:16;;;;;;;0.63;0.63;;;;;;;10.39;78.19;96312.81;5003585;28;20233;-69
2023/04/26 07:46:43;;;;;;;2.40;1.47;;;;;;;10.39;77.43;96316.28;4998043;28;20199;-69
2023/04/26 07:49:09;;;;;;;2.53;1.60;;;;;;;10.62;78.27;96316.31;5000241;28;20199;-69
2023/04/26 07:51:37;;;;;;;1.43;1.20;;;;;;;10.57;77.57;96311.53;4996823;28;20293;-69
2023/04/26 07:54:04;;;;;;;0.50;0.50;;;;;;;10.67;73.62;96311.34;4997120;28;20214;-69
2023/04/26 07:56:30;;;;;;;2.13;1.60;;;;;;;10.67;71.48;96311.34;4997135;28;20296;-69
2023/04/26 07:58:57;;;;;;;1.40;1.30;;;;;;;10.14;69.64;96313.94;4996939;28;20206;-69
2023/04/26 08:01:23;;;;;;;3.03;1.27;;;;;;;10.26;73.99;96317.84;4997995;28;20210;-69
2023/04/26 08:03:50;;;;;;;0.40;0.40;;;;;;;9.80;71.21;96321.31;4996909;28;20616;-69
2023/04/26 08:06:16;;;;;;;0.70;0.70;;;;;;;10.15;71.90;96312.16;4996973;28;20210;-69
2023/04/26 08:08:48;;;;;;;1.50;1.37;;;;;;;10.30;73.97;96315.66;4998895;28;20203;-69
2023/04/26 08:11:14;;;;;;;3.07;1.67;;;;;;;10.02;70.31;96315.31;4998514;28;20206;-69
2023/04/26 08:13:42;;;;;;;1.73;1.47;;;;;;;10.17;73.12;96318.88;4995309;28;20973;-69
2023/04/26 08:16:09;;;;;;;2.20;1.67;;;;;;;10.13;81.07;96317.59;4997629;28;20572;-69
2023/04/26 08:18:35;;;;;;;1.43;0.77;;;;;;;10.12;71.25;96320.38;4996274;28;20202;-69
2023/04/26 08:21:02;;;;;;;3.77;1.50;;;;;;;10.23;70.34;96315.53;5003064;28;20205;-69
2023/04/26 08:23:33;;;;;;;2.97;1.40;;;;;;;10.53;68.18;96320.00;5006594;28;20253;-69
2023/04/26 08:26:01;;;;;;;1.50;0.80;;;;;;;10.44;70.57;96315.78;5001056;28;20324;-69
2023/04/26 08:28:28;;;;;;;0.70;0.70;;;;;;;10.48;72.55;96317.84;5000378;28;20199;-69
2023/04/26 08:30:54;;;;;;;7.83;2.60;;;;;;;10.43;73.85;96311.50;5001253;28;20229;-69
2023/04/26 08:33:21;;;;;;;4.33;2.27;;;;;;;10.44;72.27;96318.41;4999286;28;20210;-69
2023/04/26 08:35:47;;;;;;;2.33;1.60;;;;;;;10.58;70.80;96318.47;5000851;28;20202;-69
2023/04/26 08:38:14;;;;;;;1.57;1.47;;;;;;;10.49;74.03;96318.69;5002522;28;20202;-69
2023/04/26 08:40:43;;;;;;;1.17;1.13;;;;;;;10.66;71.36;96322.84;5005542;28;20221;-69
2023/04/26 08:43:11;;;;;;;2.03;1.60;;;;;;;10.82;70.45;96320.94;5000192;28;20209;-69
2023/04/26 08:45:40;;;;;;;1.67;1.20;;;;;;;10.60;68.55;96318.28;5000436;28;20312;-69
2023/04/26 08:48:13;;;;;;;2.17;1.10;;;;;;;10.82;69.62;96322.72;4998679;28;20294;-69
2023/04/26 08:50:42;;;;;;;1.63;1.00;;;;;;;10.53;68.95;96322.63;5000878;28;20206;-69
2023/04/26 08:53:13;;;;;;;0.60;0.60;;;;;;;10.54;69.23;96327.72;4999908;28;20699;-69
2023/04/26 08:55:41;;;;;;;6.03;2.77;;;;;;;10.83;69.59;96313.84;5000822;28;20214;-69
2023/04/26 08:58:08;;;;;;;0.93;0.90;;;;;;;10.94;71.21;96319.50;4999713;28;20217;-69
2023/04/26 09:00:36;;;;;;;10.17;1.30;;;;;;;11.35;67.61;96316.31;5000249;28;20203;-69
2023/04/26 09:03:03;;;;;;;2.03;1.70;;;;;;;11.12;68.22;96323.47;5004114;28;20222;-69
2023/04/26 09:05:29;;;;;;;1.77;1.27;;;;;;;11.17;66.30;96315.84;5000163;28;20233;-69
2023/04/26 09:07:57;;;;;;;1.10;0.87;;;;;;;11.09;66.22;96323.81;5000353;28;20202;-69
2023/04/26 09:10:24;;;;;;;2.60;1.50;;;;;;;11.36;70.56;96325.88;4999667;28;21126;-69
2023/04/26 09:12:52;;;;;;;1.13;0.93;;;;;;;11.33;65.29;96320.97;5002863;28;20199;-69
2023/04/26 09:15:20;;;;;;;1.17;1.07;;;;;;;11.76;60.74;96328.13;5001037;28;20214;-69
2023/04/26 09:17:48;;;;;;;1.50;1.27;;;;;;;11.54;61.69;96326.41;4998474;28;20203;-69
2023/04/26 09:20:20;;;;;;;3.27;1.67;;;;;;;11.69;63.14;96316.69;4999906;28;20574;-69
2023/04/26 09:22:47;;;;;;;0.70;0.70;;;;;;;11.41;61.83;96320.88;5000898;28;20238;-69
2023/04/26 09:25:15;;;;;;;1.90;1.27;;;;;;;11.92;64.11;96317.41;4999255;28;20226;-69
2023/04/26 09:27:43;;;;;;;0.83;0.83;;;;;;;11.77;60.74;96325.34;4995967;28;20203;-69
2023/04/26 09:30:14;;;;;;;3.57;2.27;;;;;;;12.11;59.45;96324.78;4998751;28;20206;-69
2023/04/26 09:32:52;;;;;;;1.17;0.80;;;;;;;12.36;65.01;96317.16;4998965;28;20218;-69
2023/04/26 09:35:23;;;;;;;1.20;1.10;;;;;;;12.52;60.21;96316.91;5005938;28;20240;-69
2023/04/26 09:37:54;;;;;;;1.33;1.23;;;;;;;12.71;61.17;96308.38;5000926;28;20222;-69
2023/04/26 09:40:21;;;;;;;1.87;1.50;;;;;;;12.52;57.66;96308.19;4998917;28;20241;-69
2023/04/26 09:42:57;;;;;;;2.00;1.57;;;;;;;12.35;58.71;96304.94;5011311;28;20206;-69
2023/04/26 09:45:24;;;;;;;2.03;1.77;;;;;;;11.61;62.81;96306.22;4998953;28;20261;-69
2023/04/26 09:47:52;;;;;;;0.90;0.88;;;;;;;11.44;66.81;96311.78;4998128;28;20202;-69
2023/04/26 09:50:29;;;;;;;1.05;0.93;;;;;;;11.28;63.14;96315.41;4999144;28;20210;-69
2023/04/26 09:52:56;;;;;;;7.87;1.43;;;;;;;11.26;64.21;96313.94;4999552;28;20205;-69
2023/04/26 09:55:27;;;;;;;1.13;0.97;;;;;;;11.56;62.98;96319.13;4999293;28;20265;-69
2023/04/26 09:57:54;;;;;;;0.70;0.70;;;;;;;11.42;67.03;96319.06;5003852;28;20234;-69
2023/04/26 10:00:21;;;;;;;5.17;1.57;;;;;;;11.48;63.07;96316.56;5000956;28;20213;-69
2023/04/26 10:02:48;;;;;;;1.07;0.93;;;;;;;11.53;62.19;96316.03;5001048;28;20199;-69
2023/04/26 10:05:16;;;;;;;0.90;0.87;;;;;;;11.29;63.60;96316.22;5004404;28;20232;-69
2023/04/26 10:07:43;;;;;;;2.37;1.43;;;;;;;11.45;61.19;96308.97;4998064;28;20671;-69
2023/04/26 10:10:11;;;;;;;0.97;0.97;;;;;;;11.43;62.00;96307.50;4999336;28;20212;-69
2023/04/26 10:12:40;;;;;;;5.63;1.70;;;;;;;11.18;62.86;96306.13;4999760;28;20202;-69
2023/04/26 10:15:09;;;;;;;12.27;1.10;;;;;;;11.59;61.47;96302.91;5007314;28;20312;-69
2023/04/26 10:17:35;;;;;;;2.27;1.70;;;;;;;11.81;60.93;96296.72;5000852;28;20210;-69
2023/04/26 10:20:04;;;;;;;4.03;0.83;;;;;;;11.57;61.02;96303.09;4998229;28;20213;-69
2023/04/26 10:22:39;;;;;;;1.30;1.20;;;;;;;11.50;61.78;96296.09;4998718;28;20639;-69
2023/04/26 10:25:08;;;;;;;1.17;1.07;;;;;;;11.68;60.12;96296.56;5000289;28;20654;-69
2023/04/26 10:27:51;;;;;;;1.20;1.10;;;;;;;12.21;59.25;96289.94;4998821;28;20308;-69
2023/04/26 10:30:22;;;;;;;2.13;1.13;;;;;;;12.10;60.43;96281.66;5001649;28;20201;-69
2023/04/26 10:33:15;;;;;;;0.93;0.60;;;;;;;12.15;57.64;96287.22;4997508;28;20309;-69
2023/04/26 10:36:01;;;;;;;0.80;0.80;;;;;;;12.57;60.80;96282.81;4999541;28;20572;-69
2023/04/26 10:38:29;;;;;;;0.77;0.77;;;;;;;12.69;56.01;96288.41;4999293;28;20209;-69
2023/04/26 10:40:56;;;;;;;1.95;1.17;;;;;;;12.30;57.87;96283.53;5003483;28;20193;-69
2023/04/26 10:43:30;;;;;;;0.77;0.77;;;;;;;12.54;55.74;96275.28;5000935;28;20222;-69
2023/04/26 10:45:57;;;;;;;0.52;0.52;;;;;;;12.26;56.21;96277.00;5001203;28;20230;-69
2023/04/26 10:48:29;;;;;;;1.17;1.02;;;;;;;12.30;57.80;96270.31;5001464;28;20202;-69
2023/04/26 10:51:08;;;;;;;1.43;1.33;;;;;;;12.54;55.28;96267.34;4997035;28;20202;-69
2023/04/26 10:53:59;;;;;;;1.20;1.10;;;;;;;13.07;54.84;96265.03;4997711;28;20233;-69
2023/04/26 10:56:51;;;;;;;0.60;0.60;;;;;;;13.01;53.44;96263.13;4998195;28;20230;-69
2023/04/26 10:59:20;;;;;;;1.15;0.90;;;;;;;12.36;55.94;96261.66;5000885;28;20728;-69
2023/04/26 11:01:46;;;;;;;0.60;0.60;;;;;;;11.85;56.84;96253.13;4998312;28;20207;-69
2023/04/26 11:04:13;;;;;;;1.83;1.15;;;;;;;12.43;59.23;96254.59;4998389;28;20233;-69
2023/04/26 11:06:47;;;;;;;1.27;1.08;;;;;;;13.31;53.81;96254.00;4997307;28;20222;-69
2023/04/26 11:09:38;;;;;;;1.60;1.50;;;;;;;13.96;54.68;96249.09;4997828;28;20288;-69
2023/04/26 11:12:05;;;;;;;0.80;0.80;;;;;;;13.93;54.27;96247.63;4997855;28;20217;-69
2023/04/26 11:14:33;;;;;;;1.88;0.82;;;;;;;13.52;56.39;96256.59;4997808;28;20230;-69
2023/04/26 11:17:02;;;;;;;0.50;0.50;;;;;;;13.42;55.61;96267.50;4997936;28;20849;-69
2023/04/26 11:19:28;;;;;;;1.33;0.83;;;;;;;12.84;56.00;96260.91;5000941;28;20203;-69
2023/04/26 11:21:55;;;;;;;1.00;0.63;;;;;;;12.79;57.42;96261.50;4998157;28;20209;-69
2023/04/26 11:24:25;;;;;;;1.15;1.15;;;;;;;12.94;54.97;96256.16;4997571;28;20257;-69
2023/04/26 11:26:53;;;;;;;0.57;0.57;;;;;;;12.68;57.94;96258.53;4997700;28;20233;-69
2023/04/26 11:29:20;;;;;;;2.15;0.90;;;;;;;12.59;56.03;96258.81;4997651;28;20214;-69
2023/04/26 11:31:52;;;;;;;0.70;0.68;;;;;;;12.52;53.35;96258.75;4997378;28;20206;-69
2023/04/26 11:34:21;;;;;;;0.88;0.88;;;;;;;12.53;53.99;96255.13;5002428;28;20245;-69
2023/04/26 11:36:48;;;;;;;3.17;1.60;;;;;;;13.05;52.82;96259.09;5000385;28;20198;-69
2023/04/26 11:39:15;;;;;;;0.70;0.70;;;;;;;12.84;52.55;96252.97;4997478;28;20202;-69